createdAt,value
2017-05-24T00:02:00.201Z,75.40
2017-05-24T00:04:27.858Z,75.80
2017-05-24T00:06:56.282Z,77.20
2017-05-24T00:09:24.732Z,76.10
2017-05-24T00:11:52.389Z,76.00
2017-05-24T00:14:20.352Z,76.00
2017-05-24T00:16:48.012Z,76.10
2017-05-24T00:19:16.428Z,76.70
2017-05-24T00:21:44.880Z,77.00
2017-05-24T00:24:12.531Z,76.90
2017-05-24T00:26:40.482Z,76.70
2017-05-24T00:29:08.137Z,77.50
2017-05-24T00:31:36.559Z,77.40
2017-05-24T00:34:05.018Z,74.90
2017-05-24T00:36:32.667Z,74.80
2017-05-24T00:39:00.617Z,73.50
2017-05-24T00:41:28.279Z,72.90
2017-05-24T00:43:55.937Z,73.60
2017-05-24T00:46:23.618Z,74.00
2017-05-24T00:48:51.282Z,74.20
2017-05-24T00:51:19.247Z,69.70
2017-05-24T00:53:46.893Z,66.10
2017-05-24T00:56:14.541Z,63.60
2017-05-24T00:58:42.218Z,60.30
2017-05-24T01:01:09.856Z,60.60
2017-05-24T01:03:37.901Z,60.20
2017-05-24T01:06:05.545Z,61.30
2017-05-24T01:08:33.183Z,61.90
2017-05-24T01:11:00.860Z,62.70
2017-05-24T01:13:28.533Z,64.40
2017-05-24T01:15:57.297Z,64.20
2017-05-24T01:18:25.725Z,61.10
2017-05-24T01:20:53.377Z,61.00
2017-05-24T01:23:21.825Z,60.60
2017-05-24T01:25:49.472Z,60.60
2017-05-24T01:28:17.440Z,60.50
2017-05-24T01:30:45.099Z,60.80
2017-05-24T01:33:13.532Z,55.70
2017-05-24T01:35:41.209Z,55.70
2017-05-24T01:38:08.861Z,55.50
2017-05-24T01:40:36.900Z,54.40
2017-05-24T01:43:04.544Z,53.20
2017-05-24T01:45:32.184Z,52.90
2017-05-24T01:47:59.857Z,52.70
2017-05-24T01:50:27.508Z,52.00
2017-05-24T01:52:55.445Z,51.50
2017-05-24T01:55:23.863Z,52.00
2017-05-24T01:57:51.520Z,51.80
2017-05-24T02:00:19.198Z,52.50
2017-05-24T02:02:46.851Z,52.60
2017-05-24T02:05:14.797Z,51.80
2017-05-24T02:07:42.437Z,51.40
2017-05-24T02:10:10.083Z,52.40
2017-05-24T02:12:37.753Z,51.30
2017-05-24T02:15:05.401Z,51.50
2017-05-24T02:17:33.362Z,52.00
2017-05-24T02:20:02.586Z,52.60
2017-05-24T02:22:30.237Z,52.60
2017-05-24T02:24:57.905Z,52.20
2017-05-24T02:27:25.549Z,52.50
2017-05-24T02:29:53.537Z,52.20
2017-05-24T02:32:21.199Z,52.50
2017-05-24T02:34:49.614Z,52.40
2017-05-24T02:37:17.294Z,52.30
2017-05-24T02:39:44.945Z,53.30
2017-05-24T02:42:12.989Z,52.30
2017-05-24T02:44:40.634Z,52.10
2017-05-24T02:47:08.282Z,52.70
2017-05-24T02:49:36.228Z,52.60
2017-05-24T02:52:03.874Z,52.40
2017-05-24T02:54:31.544Z,51.90
2017-05-24T02:56:59.591Z,52.80
2017-05-24T02:59:27.481Z,53.00
2017-05-24T03:01:55.142Z,53.20
2017-05-24T03:04:23.129Z,53.60
2017-05-24T03:06:50.774Z,53.60
2017-05-24T03:09:18.423Z,52.80
2017-05-24T03:11:47.198Z,53.50
2017-05-24T03:14:14.859Z,53.50
2017-05-24T03:16:42.504Z,53.40
2017-05-24T03:19:10.491Z,53.40
2017-05-24T03:21:38.908Z,53.70
2017-05-24T03:24:06.556Z,53.70
2017-05-24T03:26:34.626Z,53.40
2017-05-24T03:29:02.291Z,54.30
2017-05-24T03:31:29.949Z,54.50
2017-05-24T03:33:57.971Z,53.90
2017-05-24T03:36:25.608Z,54.70
2017-05-24T03:38:53.249Z,54.50
2017-05-24T03:41:21.243Z,54.50
2017-05-24T03:43:48.887Z,55.10
2017-05-24T03:46:16.538Z,55.00
2017-05-24T03:48:44.508Z,55.10
2017-05-24T03:51:12.159Z,55.10
2017-05-24T03:53:39.807Z,55.10
2017-05-24T03:56:07.807Z,54.40
2017-05-24T03:58:35.457Z,54.70
2017-05-24T04:01:03.874Z,54.70
2017-05-24T04:03:31.868Z,54.50
2017-05-24T04:06:00.383Z,53.80
2017-05-24T04:08:28.034Z,53.80
2017-05-24T04:10:55.967Z,54.50
2017-05-24T04:13:23.612Z,54.70
2017-05-24T04:15:51.265Z,54.50
2017-05-24T04:18:19.280Z,55.20
2017-05-24T04:20:46.953Z,55.20
2017-05-24T04:23:14.605Z,53.70
2017-05-24T04:25:43.388Z,54.60
2017-05-24T04:28:11.801Z,55.80
2017-05-24T04:30:39.459Z,55.40
2017-05-24T04:33:07.424Z,56.10
2017-05-24T04:35:35.080Z,55.30
2017-05-24T04:38:02.733Z,55.70
2017-05-24T04:40:30.772Z,55.70
2017-05-24T04:42:59.385Z,55.60
2017-05-24T04:45:27.085Z,55.50
2017-05-24T04:47:55.037Z,56.20
2017-05-24T04:50:22.687Z,56.20
2017-05-24T04:52:51.101Z,57.00
2017-05-24T04:55:18.798Z,57.10
2017-05-24T04:57:46.909Z,56.30
2017-05-24T05:00:14.650Z,56.20
2017-05-24T05:02:42.303Z,57.00
2017-05-24T05:05:09.964Z,57.90
2017-05-24T05:07:38.372Z,57.50
2017-05-24T05:10:06.313Z,57.50
2017-05-24T05:12:33.956Z,56.40
2017-05-24T05:15:01.604Z,55.90
2017-05-24T05:17:29.294Z,56.90
2017-05-24T05:19:56.939Z,56.80
2017-05-24T05:22:24.988Z,56.50
2017-05-24T05:24:53.389Z,56.30
2017-05-24T05:27:21.044Z,56.20
2017-05-24T05:29:49.524Z,55.20
2017-05-24T05:32:17.940Z,55.10
2017-05-24T05:34:46.663Z,55.70
2017-05-24T05:37:14.351Z,55.20
2017-05-24T05:39:42.038Z,54.30
2017-05-24T05:42:09.710Z,54.80
2017-05-24T05:44:38.137Z,55.60
2017-05-24T05:47:06.112Z,55.60
2017-05-24T05:49:34.525Z,55.20
2017-05-24T05:52:02.192Z,55.20
2017-05-24T05:54:29.861Z,56.00
2017-05-24T05:56:57.544Z,54.50
2017-05-24T05:59:25.479Z,54.90
2017-05-24T06:01:53.148Z,54.50
2017-05-24T06:04:20.784Z,55.10
2017-05-24T06:06:48.457Z,53.10
2017-05-24T06:09:16.113Z,52.70
2017-05-24T06:11:44.126Z,54.00
2017-05-24T06:14:11.904Z,54.30
2017-05-24T06:16:39.550Z,51.50
2017-05-24T06:19:07.262Z,52.70
2017-05-24T06:21:34.929Z,52.90
2017-05-24T06:24:02.969Z,52.10
2017-05-24T06:26:31.382Z,50.60
2017-05-24T06:28:59.036Z,50.60
2017-05-24T06:31:26.703Z,49.30
2017-05-24T06:33:54.353Z,49.00
2017-05-24T06:36:23.199Z,46.10
2017-05-24T06:38:51.620Z,46.60
2017-05-24T06:41:19.264Z,46.60
2017-05-24T06:43:47.692Z,47.40
2017-05-24T06:46:15.350Z,47.30
2017-05-24T06:48:43.283Z,47.30
2017-05-24T06:51:10.933Z,47.50
2017-05-24T06:53:38.612Z,47.80
2017-05-24T06:56:06.285Z,49.90
2017-05-24T06:58:34.689Z,49.40
2017-05-24T07:01:02.631Z,49.40
2017-05-24T07:03:30.296Z,49.90
2017-05-24T07:05:57.937Z,50.60
2017-05-24T07:08:25.629Z,50.40
2017-05-24T07:10:53.277Z,49.30
2017-05-24T07:13:21.212Z,49.70
2017-05-24T07:15:48.912Z,50.90
2017-05-24T07:18:16.554Z,48.70
2017-05-24T07:20:44.244Z,49.40
2017-05-24T07:23:12.663Z,48.40
2017-05-24T07:25:40.646Z,48.40
2017-05-24T07:28:09.064Z,46.50
2017-05-24T07:30:38.538Z,46.50
2017-05-24T07:33:06.404Z,48.10
2017-05-24T07:35:34.117Z,48.20
2017-05-24T07:38:02.061Z,48.10
2017-05-24T07:40:30.297Z,47.80
2017-05-24T07:42:58.513Z,48.60
2017-05-24T07:45:27.749Z,49.40
2017-05-24T07:47:56.560Z,48.30
2017-05-24T07:50:24.705Z,48.10
2017-05-24T07:52:52.349Z,48.80
2017-05-24T07:55:20.774Z,46.00
2017-05-24T07:57:48.504Z,46.00
2017-05-24T08:00:16.205Z,45.70
2017-05-24T08:02:44.140Z,46.60
2017-05-24T08:05:11.802Z,44.40
2017-05-24T08:07:40.216Z,46.60
2017-05-24T08:10:07.890Z,46.60
2017-05-24T08:12:35.529Z,46.80
2017-05-24T08:15:03.551Z,47.20
2017-05-24T08:17:31.228Z,43.40
2017-05-24T08:19:58.902Z,40.40
2017-05-24T08:22:26.602Z,42.20
2017-05-24T08:24:54.245Z,42.00
2017-05-24T08:27:22.237Z,42.70
2017-05-24T08:29:49.890Z,42.20
2017-05-24T08:32:17.561Z,42.60
2017-05-24T08:34:46.021Z,44.20
2017-05-24T08:37:14.479Z,44.00
2017-05-24T08:39:42.421Z,43.90
2017-05-24T08:42:10.069Z,44.20
2017-05-24T08:44:37.713Z,44.00
2017-05-24T08:47:05.404Z,41.90
2017-05-24T08:49:33.813Z,41.30
2017-05-24T08:52:01.949Z,41.30
2017-05-24T08:54:29.596Z,39.40
2017-05-24T08:56:57.987Z,39.60
2017-05-24T08:59:25.666Z,41.20
2017-05-24T09:01:54.089Z,40.90
2017-05-24T09:04:22.844Z,40.50
2017-05-24T09:06:50.491Z,40.50
2017-05-24T09:09:18.129Z,39.20
2017-05-24T09:11:45.796Z,38.70
2017-05-24T09:14:13.440Z,38.70
2017-05-24T09:16:41.483Z,39.10
2017-05-24T09:19:09.121Z,40.00
2017-05-24T09:21:37.534Z,40.60
2017-05-24T09:24:05.201Z,40.60
2017-05-24T09:26:32.927Z,39.20
2017-05-24T09:29:00.864Z,35.80
2017-05-24T09:31:28.517Z,34.60
2017-05-24T09:33:56.176Z,36.00
2017-05-24T09:36:23.847Z,33.60
2017-05-24T09:38:52.292Z,36.00
2017-05-24T09:41:20.296Z,35.90
2017-05-24T09:43:48.709Z,35.20
2017-05-24T09:46:16.362Z,35.20
2017-05-24T09:48:44.033Z,37.70
2017-05-24T09:51:11.685Z,36.90
2017-05-24T09:53:40.478Z,37.70
2017-05-24T09:56:08.118Z,37.80
2017-05-24T09:58:35.817Z,37.10
2017-05-24T10:01:03.499Z,38.00
2017-05-24T10:03:31.150Z,38.20
2017-05-24T10:05:59.113Z,36.40
2017-05-24T10:08:27.109Z,34.90
2017-05-24T10:10:54.821Z,35.90
2017-05-24T10:13:22.538Z,35.60
2017-05-24T10:15:50.305Z,35.00
2017-05-24T10:18:18.237Z,37.50
2017-05-24T10:20:46.693Z,38.60
2017-05-24T10:23:14.383Z,38.50
2017-05-24T10:25:42.565Z,36.50
2017-05-24T10:28:10.462Z,37.10
2017-05-24T10:30:38.845Z,36.90
2017-05-24T10:33:07.338Z,35.70
2017-05-24T10:35:34.987Z,35.70
2017-05-24T10:38:02.660Z,34.20
2017-05-24T10:40:45.196Z,34.70
2017-05-24T10:43:12.878Z,34.30
2017-05-24T10:45:40.524Z,32.50
2017-05-24T10:48:08.565Z,32.40
2017-05-24T10:50:36.991Z,33.70
2017-05-24T10:53:06.059Z,34.50
2017-05-24T10:55:34.611Z,33.40
2017-05-24T10:58:02.322Z,33.30
2017-05-24T11:00:30.454Z,33.60
2017-05-24T11:02:58.181Z,32.00
2017-05-24T11:05:25.861Z,34.30
2017-05-24T11:07:53.544Z,35.30
2017-05-24T11:10:21.180Z,33.10
2017-05-24T11:12:49.164Z,32.20
2017-05-24T11:15:16.810Z,33.50
2017-05-24T11:17:44.460Z,34.10
2017-05-24T11:20:12.952Z,32.60
2017-05-24T11:22:41.043Z,32.60
2017-05-24T11:25:09.007Z,32.50
2017-05-24T11:27:36.652Z,34.10
2017-05-24T11:30:04.303Z,33.30
2017-05-24T11:32:31.964Z,32.10
2017-05-24T11:34:59.589Z,29.50
2017-05-24T11:37:27.236Z,28.90
2017-05-24T11:39:55.293Z,29.30
2017-05-24T11:42:22.964Z,30.50
2017-05-24T11:44:50.650Z,30.70
2017-05-24T11:47:18.329Z,31.10
2017-05-24T11:49:45.985Z,30.90
2017-05-24T11:52:13.944Z,30.40
2017-05-24T11:54:41.584Z,30.80
2017-05-24T11:57:09.245Z,31.70
2017-05-24T11:59:36.916Z,33.40
2017-05-24T12:02:04.576Z,32.80
2017-05-24T12:04:32.561Z,33.60
2017-05-24T12:07:00.206Z,32.90
2017-05-24T12:09:27.868Z,33.60
2017-05-24T12:11:55.533Z,33.30
2017-05-24T12:14:23.185Z,31.00
2017-05-24T12:16:51.209Z,31.90
2017-05-24T12:19:18.850Z,31.60
2017-05-24T12:21:46.501Z,31.30
2017-05-24T12:24:14.196Z,30.70
2017-05-24T12:26:42.612Z,31.20
2017-05-24T12:29:10.568Z,31.20
2017-05-24T12:31:38.213Z,33.00
2017-05-24T12:34:05.852Z,31.50
2017-05-24T12:36:34.291Z,29.10
2017-05-24T12:39:01.940Z,29.10
2017-05-24T12:41:30.640Z,29.70
2017-05-24T12:43:58.299Z,29.70
2017-05-24T12:46:25.954Z,31.50
2017-05-24T12:48:53.617Z,32.10
2017-05-24T12:51:21.277Z,30.90
2017-05-24T12:53:49.201Z,32.30
2017-05-24T12:56:16.849Z,32.50
2017-05-24T12:58:44.502Z,31.10
2017-05-24T13:01:12.198Z,32.10
2017-05-24T13:03:39.840Z,29.50
2017-05-24T13:06:07.833Z,29.60
2017-05-24T13:08:35.471Z,29.60
2017-05-24T13:11:03.120Z,29.50
2017-05-24T13:13:30.794Z,28.60
2017-05-24T13:15:58.441Z,29.50
2017-05-24T13:18:26.469Z,30.00
2017-05-24T13:20:54.109Z,29.80
2017-05-24T13:23:22.518Z,28.80
2017-05-24T13:25:50.190Z,28.80
2017-05-24T13:28:17.836Z,29.30
2017-05-24T13:30:45.815Z,28.60
2017-05-24T13:33:13.465Z,29.20
2017-05-24T13:35:41.122Z,30.60
2017-05-24T13:38:08.808Z,31.30
2017-05-24T13:40:36.455Z,29.00
2017-05-24T13:43:05.200Z,29.30
2017-05-24T13:45:32.844Z,29.30
2017-05-24T13:48:00.500Z,29.90
2017-05-24T13:50:29.198Z,29.70
2017-05-24T13:52:56.853Z,29.70
2017-05-24T13:55:25.019Z,30.10
2017-05-24T13:57:52.670Z,30.40
2017-05-24T14:00:20.360Z,29.70
2017-05-24T14:02:48.041Z,28.00
2017-05-24T14:05:15.701Z,28.80
2017-05-24T14:07:44.428Z,29.60
2017-05-24T14:10:12.071Z,29.60
2017-05-24T14:12:39.732Z,29.30
2017-05-24T14:15:07.400Z,29.40
2017-05-24T14:17:35.041Z,31.00
2017-05-24T14:20:03.056Z,30.40
2017-05-24T14:22:31.473Z,28.70
2017-05-24T14:24:59.120Z,28.70
2017-05-24T14:27:26.808Z,29.10
2017-05-24T14:29:55.245Z,28.20
2017-05-24T14:32:23.186Z,28.20
2017-05-24T14:34:50.835Z,28.30
2017-05-24T14:37:19.252Z,28.40
2017-05-24T14:39:46.928Z,28.40
2017-05-24T14:42:14.584Z,28.00
2017-05-24T14:44:42.594Z,27.90
2017-05-24T14:47:10.233Z,28.10
2017-05-24T14:49:37.928Z,27.70
2017-05-24T14:52:05.597Z,28.00
2017-05-24T14:54:33.245Z,28.90
2017-05-24T14:57:01.949Z,27.30
2017-05-24T14:59:29.597Z,27.30
2017-05-24T15:01:57.234Z,29.20
2017-05-24T15:04:25.664Z,29.30
2017-05-24T15:06:53.304Z,29.30
2017-05-24T15:09:22.028Z,30.30
2017-05-24T15:11:49.671Z,30.30
2017-05-24T15:14:17.312Z,28.90
2017-05-24T15:16:44.979Z,30.20
2017-05-24T15:19:12.617Z,30.20
2017-05-24T15:21:40.565Z,30.20
2017-05-24T15:24:08.202Z,29.50
2017-05-24T15:26:35.848Z,30.10
2017-05-24T15:29:03.512Z,29.70
2017-05-24T15:31:31.149Z,30.50
2017-05-24T15:33:59.110Z,31.20
2017-05-24T15:36:26.762Z,31.80
2017-05-24T15:38:55.162Z,31.40
2017-05-24T15:41:23.593Z,33.00
2017-05-24T15:43:51.228Z,32.50
2017-05-24T15:46:19.191Z,31.80
2017-05-24T15:48:46.833Z,31.30
2017-05-24T15:51:14.483Z,31.60
2017-05-24T15:53:42.913Z,32.60
2017-05-24T15:56:10.556Z,32.60
2017-05-24T15:58:38.489Z,32.30
2017-05-24T16:01:06.129Z,32.30
2017-05-24T16:03:34.532Z,32.90
2017-05-24T16:06:02.203Z,33.40
2017-05-24T16:08:30.609Z,32.10
2017-05-24T16:10:58.567Z,32.10
2017-05-24T16:13:27.026Z,32.30
2017-05-24T16:15:54.727Z,32.30
2017-05-24T16:18:22.453Z,31.60
2017-05-24T16:20:50.860Z,32.40
2017-05-24T16:23:18.798Z,32.20
2017-05-24T16:25:46.447Z,32.50
2017-05-24T16:28:14.097Z,33.00
2017-05-24T16:30:41.760Z,33.30
2017-05-24T16:33:10.194Z,33.00
2017-05-24T16:35:38.129Z,33.20
2017-05-24T16:38:06.577Z,32.90
2017-05-24T16:40:34.230Z,32.80
2017-05-24T16:43:02.662Z,32.30
2017-05-24T16:45:31.020Z,32.30
2017-05-24T16:47:58.964Z,33.40
2017-05-24T16:50:26.636Z,33.40
2017-05-24T16:52:54.285Z,33.60
2017-05-24T16:55:22.011Z,34.90
2017-05-24T16:57:50.420Z,34.20
2017-05-24T17:00:18.414Z,34.20
2017-05-24T17:02:46.057Z,33.80
2017-05-24T17:05:13.717Z,35.20
2017-05-24T17:07:42.153Z,34.90
2017-05-24T17:10:09.804Z,35.00
2017-05-24T17:12:37.784Z,35.20
2017-05-24T17:15:05.424Z,35.40
2017-05-24T17:17:33.079Z,36.10
2017-05-24T17:20:00.748Z,34.80
2017-05-24T17:22:28.437Z,35.80
2017-05-24T17:24:56.414Z,35.40
2017-05-24T17:27:24.073Z,35.90
2017-05-24T17:29:51.729Z,36.00
2017-05-24T17:32:19.396Z,35.70
2017-05-24T17:34:47.044Z,36.80
2017-05-24T17:37:15.087Z,37.40
2017-05-24T17:39:42.746Z,36.40
2017-05-24T17:42:10.409Z,37.80
2017-05-24T17:44:38.851Z,37.60
2017-05-24T17:47:06.495Z,37.50
2017-05-24T17:49:34.517Z,37.70
2017-05-24T17:52:02.180Z,36.60
2017-05-24T17:54:29.831Z,37.40
2017-05-24T17:56:57.664Z,37.60
2017-05-24T17:59:25.310Z,38.50
2017-05-24T18:01:53.285Z,38.70
2017-05-24T18:04:20.932Z,40.00
2017-05-24T18:06:48.573Z,48.80
2017-05-24T18:09:17.022Z,58.70
2017-05-24T18:11:44.697Z,58.30
2017-05-24T18:14:12.674Z,61.70
2017-05-24T18:16:40.318Z,68.90
2017-05-24T18:19:07.961Z,74.40
2017-05-24T18:21:35.658Z,74.70
2017-05-24T18:24:03.328Z,77.40
2017-05-24T18:26:31.282Z,79.90
2017-05-24T18:28:59.947Z,75.60
2017-05-24T18:31:29.356Z,79.10
2017-05-24T18:33:57.502Z,79.00
2017-05-24T18:36:25.216Z,81.20
2017-05-24T18:38:54.373Z,79.90
2017-05-24T18:41:23.067Z,80.40
2017-05-24T18:43:51.004Z,81.70
2017-05-24T18:46:18.693Z,79.70
2017-05-24T18:48:46.340Z,80.50
2017-05-24T18:51:14.006Z,79.60
2017-05-24T18:53:42.571Z,81.00
2017-05-24T18:56:10.297Z,82.10
2017-05-24T18:58:37.957Z,83.40
2017-05-24T19:01:05.921Z,81.20
2017-05-24T19:03:33.574Z,84.90
2017-05-24T19:06:02.157Z,84.30
2017-05-24T19:08:29.834Z,83.70
2017-05-24T19:10:57.490Z,83.80
2017-05-24T19:13:25.453Z,87.00
2017-05-24T19:15:53.126Z,84.40
2017-05-24T19:18:20.788Z,83.10
2017-05-24T19:20:48.469Z,86.80
2017-05-24T19:23:16.232Z,88.80
2017-05-24T19:25:44.766Z,86.80
2017-05-24T19:28:12.596Z,86.20
2017-05-24T19:30:40.250Z,85.20
2017-05-24T19:33:07.951Z,89.30
2017-05-24T19:35:35.605Z,88.00
2017-05-24T19:38:03.591Z,86.70
2017-05-24T19:40:32.010Z,88.70
2017-05-24T19:42:59.712Z,88.60
2017-05-24T19:45:27.394Z,85.70
2017-05-24T19:47:55.049Z,85.90
2017-05-24T19:50:23.852Z,86.40
2017-05-24T19:52:51.641Z,86.40
2017-05-24T19:55:20.095Z,85.50
2017-05-24T19:57:47.792Z,85.40
2017-05-24T20:00:15.585Z,83.60
2017-05-24T20:02:43.651Z,84.70
2017-05-24T20:05:11.520Z,82.50
2017-05-24T20:07:39.175Z,83.80
2017-05-24T20:10:07.790Z,81.40
2017-05-24T20:12:36.303Z,81.80
2017-05-24T20:15:04.301Z,81.80
2017-05-24T20:17:31.950Z,83.30
2017-05-24T20:19:59.651Z,82.10
2017-05-24T20:22:28.385Z,81.60
2017-05-24T20:24:56.845Z,80.60
2017-05-24T20:27:25.810Z,80.60
2017-05-24T20:29:53.890Z,80.40
2017-05-24T20:32:21.620Z,81.40
2017-05-24T20:34:49.416Z,83.50
2017-05-24T20:37:17.859Z,83.10
2017-05-24T20:39:45.829Z,83.10
2017-05-24T20:42:13.486Z,83.60
2017-05-24T20:44:41.147Z,83.70
2017-05-24T20:47:09.603Z,84.10
2017-05-24T20:49:37.252Z,84.00
2017-05-24T20:52:05.221Z,81.60
2017-05-24T20:54:32.886Z,82.40
2017-05-24T20:57:00.607Z,83.40
2017-05-24T20:59:28.411Z,84.60
2017-05-24T21:01:56.209Z,84.70
2017-05-24T21:04:24.909Z,83.80
2017-05-24T21:06:52.555Z,83.80
2017-05-24T21:09:20.302Z,82.90
2017-05-24T21:11:47.984Z,82.70
2017-05-24T21:14:15.673Z,82.40
2017-05-24T21:16:43.673Z,81.40
2017-05-24T21:19:11.373Z,82.90
2017-05-24T21:21:39.045Z,83.10
2017-05-24T21:24:06.810Z,82.60
2017-05-24T21:26:34.459Z,81.50
2017-05-24T21:29:02.684Z,82.60
2017-05-24T21:31:31.258Z,81.30
2017-05-24T21:33:59.058Z,81.30
2017-05-24T21:36:26.847Z,82.90
2017-05-24T21:38:54.718Z,82.20
2017-05-24T21:41:23.600Z,82.90
2017-05-24T21:43:51.261Z,82.90
2017-05-24T21:46:18.940Z,81.40
2017-05-24T21:48:46.655Z,82.50
2017-05-24T21:51:14.314Z,82.50
2017-05-24T21:53:42.422Z,82.40
2017-05-24T21:56:10.063Z,80.60
2017-05-24T21:58:37.715Z,80.90
2017-05-24T22:01:06.301Z,81.50
2017-05-24T22:03:33.960Z,83.50
2017-05-24T22:06:02.028Z,81.40
2017-05-24T22:08:29.690Z,81.20
2017-05-24T22:10:57.345Z,81.50
2017-05-24T22:13:25.197Z,81.90
2017-05-24T22:15:53.641Z,79.30
2017-05-24T22:18:21.695Z,79.30
2017-05-24T22:20:49.360Z,79.50
2017-05-24T22:23:17.019Z,78.30
2017-05-24T22:25:44.693Z,77.60
2017-05-24T22:28:13.141Z,79.00
2017-05-24T22:30:41.862Z,78.10
2017-05-24T22:33:09.516Z,78.10
2017-05-24T22:35:37.164Z,77.50
2017-05-24T22:38:04.837Z,78.90
2017-05-24T22:40:32.486Z,79.10
2017-05-24T22:43:00.548Z,80.50
2017-05-24T22:45:28.203Z,81.30
2017-05-24T22:47:55.852Z,81.80
2017-05-24T22:50:23.525Z,82.60
2017-05-24T22:52:51.187Z,80.60
2017-05-24T22:55:19.121Z,80.20
2017-05-24T22:57:47.530Z,81.50
2017-05-24T23:00:15.172Z,81.30
2017-05-24T23:02:42.847Z,81.50
2017-05-24T23:05:10.493Z,79.90
2017-05-24T23:07:39.219Z,81.40
2017-05-24T23:10:06.868Z,81.30
2017-05-24T23:12:34.516Z,81.20
2017-05-24T23:15:02.944Z,81.10
2017-05-24T23:17:31.032Z,81.10
2017-05-24T23:19:59.089Z,78.70
2017-05-24T23:22:26.730Z,80.80
2017-05-24T23:24:55.210Z,80.00
2017-05-24T23:27:23.647Z,80.70
2017-05-24T23:29:51.294Z,81.00
2017-05-24T23:32:19.273Z,80.60
2017-05-24T23:34:46.920Z,80.50
2017-05-24T23:37:14.580Z,76.50
2017-05-24T23:39:42.261Z,79.30
2017-05-24T23:42:09.906Z,79.20
2017-05-24T23:44:37.952Z,77.80
2017-05-24T23:47:05.602Z,77.70
2017-05-24T23:49:33.250Z,79.00
2017-05-24T23:52:00.918Z,79.70
2017-05-24T23:54:29.330Z,79.90
2017-05-24T23:56:57.373Z,79.90
2017-05-24T23:59:25.787Z,81.00
